createdAt,value
2019-04-03T00:00:49.953Z,971.866
2019-04-03T00:02:50.218Z,971.878
2019-04-03T00:04:49.650Z,971.888
2019-04-03T00:06:49.984Z,971.888
2019-04-03T00:08:50.122Z,971.899
2019-04-03T00:10:50.216Z,971.921
2019-04-03T00:12:50.532Z,971.947
2019-04-03T00:14:50.475Z,971.993
2019-04-03T00:16:49.779Z,972.011
2019-04-03T00:18:49.861Z,971.977
2019-04-03T00:20:50.188Z,971.934
2019-04-03T00:22:52.568Z,971.932
2019-04-03T00:24:52.989Z,971.925
2019-04-03T00:26:53.070Z,971.921
2019-04-03T00:28:52.738Z,971.904
2019-04-03T00:30:49.771Z,971.899
2019-04-03T00:32:54.038Z,971.868
2019-04-03T00:34:49.743Z,971.875
2019-04-03T00:36:49.999Z,971.889
2019-04-03T00:38:49.813Z,971.885
2019-04-03T00:40:49.946Z,971.877
2019-04-03T00:42:49.970Z,971.885
2019-04-03T00:44:50.052Z,971.893
2019-04-03T00:46:50.362Z,971.873
2019-04-03T00:48:50.479Z,971.828
2019-04-03T00:50:49.724Z,971.777
2019-04-03T00:52:49.914Z,971.743
2019-04-03T00:54:49.938Z,971.719
2019-04-03T00:56:50.331Z,971.672
2019-04-03T00:58:50.358Z,971.659
2019-04-03T01:00:50.525Z,971.643
2019-04-03T01:02:50.600Z,971.618
2019-04-03T01:04:50.042Z,971.621
2019-04-03T01:06:50.396Z,971.631
2019-04-03T01:08:50.417Z,971.649
2019-04-03T01:10:50.622Z,971.659
2019-04-03T01:12:49.736Z,971.645
2019-04-03T01:14:49.860Z,971.648
2019-04-03T01:16:50.207Z,971.648
2019-04-03T01:18:50.603Z,971.648
2019-04-03T01:20:49.813Z,971.662
2019-04-03T01:22:49.979Z,971.688
2019-04-03T01:24:50.251Z,971.716
2019-04-03T01:26:50.528Z,971.712
2019-04-03T01:28:49.673Z,971.733
2019-04-03T01:30:49.756Z,971.760
2019-04-03T01:32:50.084Z,971.736
2019-04-03T01:34:50.421Z,971.724
2019-04-03T01:36:50.582Z,971.660
2019-04-03T01:38:50.566Z,971.631
2019-04-03T01:40:51.317Z,971.596
2019-04-03T01:42:53.664Z,971.562
2019-04-03T01:44:49.881Z,971.541
2019-04-03T01:46:50.170Z,971.507
2019-04-03T01:48:50.253Z,971.481
2019-04-03T01:50:50.270Z,971.464
2019-04-03T01:52:50.258Z,971.475
2019-04-03T01:54:50.372Z,971.469
2019-04-03T01:56:50.473Z,971.462
2019-04-03T01:58:50.481Z,971.454
2019-04-03T02:00:50.563Z,971.443
2019-04-03T02:02:50.594Z,971.429
2019-04-03T02:04:50.089Z,971.404
2019-04-03T02:06:50.262Z,971.387
2019-04-03T02:08:49.895Z,971.371
2019-04-03T02:10:50.179Z,971.344
2019-04-03T02:12:51.768Z,971.333
2019-04-03T02:14:51.980Z,971.331
2019-04-03T02:16:50.171Z,971.332
2019-04-03T02:18:49.911Z,971.341
2019-04-03T02:20:50.008Z,971.332
2019-04-03T02:22:50.017Z,971.329
2019-04-03T02:24:50.085Z,971.302
2019-04-03T02:26:50.435Z,971.271
2019-04-03T02:28:50.405Z,971.253
2019-04-03T02:30:50.488Z,971.251
2019-04-03T02:32:50.628Z,971.254
2019-04-03T02:34:50.042Z,971.254
2019-04-03T02:36:50.293Z,971.257
2019-04-03T02:38:54.925Z,971.272
2019-04-03T02:40:49.942Z,971.269
2019-04-03T02:42:50.295Z,971.283
2019-04-03T02:44:52.296Z,971.276
2019-04-03T02:46:50.512Z,971.292
2019-04-03T02:48:50.567Z,971.277
2019-04-03T02:50:50.817Z,971.263
2019-04-03T02:52:49.922Z,971.248
2019-04-03T02:54:49.946Z,971.232
2019-04-03T02:56:50.386Z,971.227
2019-04-03T02:58:55.676Z,971.214
2019-04-03T03:00:49.785Z,971.204
2019-04-03T03:02:50.430Z,971.204
2019-04-03T03:04:55.741Z,971.183
2019-04-03T03:06:50.311Z,971.173
2019-04-03T03:08:50.360Z,971.173
2019-04-03T03:10:53.664Z,971.207
2019-04-03T03:12:49.973Z,971.217
2019-04-03T03:14:50.265Z,971.231
2019-04-03T03:16:51.366Z,971.259
2019-04-03T03:18:50.382Z,971.273
2019-04-03T03:20:50.789Z,971.278
2019-04-03T03:22:51.865Z,971.277
2019-04-03T03:24:49.993Z,971.234
2019-04-03T03:26:50.366Z,971.214
2019-04-03T03:28:50.507Z,971.234
2019-04-03T03:31:05.874Z,971.257
2019-04-03T03:32:50.525Z,971.247
2019-04-03T03:35:14.867Z,971.248
2019-04-03T03:36:58.314Z,971.250
2019-04-03T03:38:50.323Z,971.247
2019-04-03T03:40:50.443Z,971.246
2019-04-03T03:42:50.492Z,971.242
2019-04-03T03:44:50.538Z,971.235
2019-04-03T03:46:49.968Z,971.224
2019-04-03T03:48:50.758Z,971.193
2019-04-03T03:50:50.148Z,971.144
2019-04-03T03:52:50.186Z,971.119
2019-04-03T03:54:52.659Z,971.085
2019-04-03T03:56:50.617Z,971.079
2019-04-03T03:58:49.938Z,971.072
2019-04-03T04:00:59.338Z,971.070
2019-04-03T04:02:50.090Z,971.044
2019-04-03T04:04:50.598Z,971.019
2019-04-03T04:06:49.903Z,971.004
2019-04-03T04:08:49.909Z,970.948
2019-04-03T04:10:50.251Z,970.897
2019-04-03T04:12:50.321Z,970.858
2019-04-03T04:14:50.005Z,970.849
2019-04-03T04:16:50.313Z,970.835
2019-04-03T04:18:50.460Z,970.816
2019-04-03T04:20:50.497Z,970.804
2019-04-03T04:22:51.757Z,970.800
2019-04-03T04:24:49.764Z,970.773
2019-04-03T04:26:50.827Z,970.768
2019-04-03T04:28:49.984Z,970.737
2019-04-03T04:30:50.098Z,970.727
2019-04-03T04:32:50.409Z,970.713
2019-04-03T04:34:50.807Z,970.664
2019-04-03T04:36:50.445Z,970.652
2019-04-03T04:38:50.443Z,970.692
2019-04-03T04:40:49.737Z,970.686
2019-04-03T04:42:49.704Z,970.722
2019-04-03T04:44:49.788Z,970.729
2019-04-03T04:46:50.095Z,970.749
2019-04-03T04:48:52.521Z,970.721
2019-04-03T04:50:50.550Z,970.730
2019-04-03T04:52:49.646Z,970.729
2019-04-03T04:54:49.694Z,970.754
2019-04-03T04:56:49.937Z,970.783
2019-04-03T04:58:49.954Z,970.799
2019-04-03T05:00:54.037Z,970.823
2019-04-03T05:02:51.630Z,970.876
2019-04-03T05:04:50.334Z,970.938
2019-04-03T05:06:50.761Z,970.968
2019-04-03T05:08:49.814Z,970.982
2019-04-03T05:10:49.740Z,970.969
2019-04-03T05:12:49.811Z,970.984
2019-04-03T05:14:49.977Z,970.995
2019-04-03T05:16:50.362Z,970.980
2019-04-03T05:18:50.550Z,970.990
2019-04-03T05:20:51.738Z,971.019
2019-04-03T05:22:49.795Z,971.032
2019-04-03T05:24:49.905Z,971.037
2019-04-03T05:26:50.072Z,971.046
2019-04-03T05:28:57.907Z,971.048
2019-04-03T05:30:49.952Z,971.047
2019-04-03T05:32:50.073Z,971.046
2019-04-03T05:34:50.446Z,971.041
2019-04-03T05:36:50.061Z,971.031
2019-04-03T05:38:54.128Z,971.032
2019-04-03T05:40:50.223Z,971.020
2019-04-03T05:42:50.737Z,971.025
2019-04-03T05:44:49.941Z,971.020
2019-04-03T05:46:50.089Z,971.046
2019-04-03T05:48:50.248Z,971.046
2019-04-03T05:50:50.336Z,971.031
2019-04-03T05:52:50.464Z,971.027
2019-04-03T05:54:50.436Z,971.031
2019-04-03T05:56:52.272Z,971.028
2019-04-03T05:59:02.520Z,971.050
2019-04-03T06:01:06.993Z,971.072
2019-04-03T06:02:56.823Z,971.102
2019-04-03T06:04:50.574Z,971.102
2019-04-03T06:06:49.901Z,971.094
2019-04-03T06:08:52.155Z,971.139
2019-04-03T06:10:50.263Z,971.196
2019-04-03T06:12:50.562Z,971.200
2019-04-03T06:14:51.142Z,971.194
2019-04-03T06:16:50.611Z,971.178
2019-04-03T06:18:50.592Z,971.143
2019-04-03T06:20:49.877Z,971.103
2019-04-03T06:22:51.197Z,971.065
2019-04-03T06:24:50.270Z,971.026
2019-04-03T06:26:50.664Z,970.992
2019-04-03T06:28:49.771Z,970.985
2019-04-03T06:30:49.873Z,970.982
2019-04-03T06:32:50.293Z,970.980
2019-04-03T06:34:49.930Z,970.990
2019-04-03T06:36:51.696Z,970.978
2019-04-03T06:38:50.155Z,970.977
2019-04-03T06:40:50.220Z,970.960
2019-04-03T06:42:50.321Z,970.952
2019-04-03T06:44:54.249Z,970.906
2019-04-03T06:46:49.829Z,970.890
2019-04-03T06:48:49.848Z,970.885
2019-04-03T06:50:49.819Z,970.900
2019-04-03T06:52:53.822Z,970.896
2019-04-03T06:54:50.125Z,970.907
2019-04-03T06:56:53.204Z,970.865
2019-04-03T06:58:50.228Z,970.848
2019-04-03T07:00:50.520Z,970.825
2019-04-03T07:02:50.127Z,970.826
2019-04-03T07:04:50.580Z,970.829
2019-04-03T07:06:50.589Z,970.830
2019-04-03T07:08:49.905Z,970.790
2019-04-03T07:10:55.775Z,970.778
2019-04-03T07:12:49.886Z,970.773
2019-04-03T07:14:49.860Z,970.780
2019-04-03T07:16:50.012Z,970.771
2019-04-03T07:18:50.303Z,970.764
2019-04-03T07:20:52.763Z,970.777
2019-04-03T07:22:49.769Z,970.779
2019-04-03T07:24:49.885Z,970.796
2019-04-03T07:26:50.709Z,970.803
2019-04-03T07:28:49.799Z,970.824
2019-04-03T07:30:54.404Z,970.839
2019-04-03T07:32:50.536Z,970.851
2019-04-03T07:34:50.282Z,970.832
2019-04-03T07:36:50.392Z,970.831
2019-04-03T07:38:50.043Z,970.828
2019-04-03T07:40:52.814Z,970.815
2019-04-03T07:42:50.186Z,970.809
2019-04-03T07:44:50.235Z,970.794
2019-04-03T07:46:50.557Z,970.794
2019-04-03T07:48:49.634Z,970.765
2019-04-03T07:50:49.836Z,970.730
2019-04-03T07:52:50.037Z,970.680
2019-04-03T07:54:56.336Z,970.641
2019-04-03T07:56:50.086Z,970.630
2019-04-03T07:58:50.256Z,970.617
2019-04-03T08:00:50.527Z,970.601
2019-04-03T08:02:50.329Z,970.581
2019-04-03T08:04:49.891Z,970.523
2019-04-03T08:06:50.429Z,970.523
2019-04-03T08:09:08.897Z,970.488
2019-04-03T08:10:50.607Z,970.448
2019-04-03T08:12:49.851Z,970.402
2019-04-03T08:14:50.286Z,970.361
2019-04-03T08:16:50.902Z,970.354
2019-04-03T08:18:52.637Z,970.333
2019-04-03T08:20:50.139Z,970.345
2019-04-03T08:22:50.175Z,970.343
2019-04-03T08:24:54.311Z,970.368
2019-04-03T08:26:52.845Z,970.368
2019-04-03T08:28:49.937Z,970.437
2019-04-03T08:30:50.288Z,970.439
2019-04-03T08:32:50.654Z,970.396
2019-04-03T08:34:50.110Z,970.370
2019-04-03T08:36:50.378Z,970.326
2019-04-03T08:38:50.031Z,970.321
2019-04-03T08:40:53.776Z,970.375
2019-04-03T08:42:50.195Z,970.375
2019-04-03T08:44:50.272Z,970.360
2019-04-03T08:46:50.443Z,970.324
2019-04-03T08:48:49.926Z,970.292
2019-04-03T08:50:50.029Z,970.245
2019-04-03T08:52:50.284Z,970.222
2019-04-03T08:54:50.526Z,970.221
2019-04-03T08:56:50.146Z,970.228
2019-04-03T08:58:50.620Z,970.212
2019-04-03T09:00:50.872Z,970.203
2019-04-03T09:02:50.402Z,970.178
2019-04-03T09:04:50.173Z,970.181
2019-04-03T09:06:50.082Z,970.151
2019-04-03T09:08:49.648Z,970.148
2019-04-03T09:10:49.711Z,970.147
2019-04-03T09:12:49.693Z,970.113
2019-04-03T09:14:49.995Z,970.115
2019-04-03T09:16:50.551Z,970.118
2019-04-03T09:18:50.148Z,970.078
2019-04-03T09:20:50.508Z,970.058
2019-04-03T09:22:54.554Z,970.038
2019-04-03T09:24:50.191Z,970.010
2019-04-03T09:26:50.477Z,969.968
2019-04-03T09:28:49.624Z,969.949
2019-04-03T09:30:49.930Z,969.910
2019-04-03T09:32:51.788Z,969.840
2019-04-03T09:34:49.872Z,969.829
2019-04-03T09:36:49.968Z,969.816
2019-04-03T09:38:50.662Z,969.809
2019-04-03T09:40:49.918Z,969.753
2019-04-03T09:42:52.169Z,969.746
2019-04-03T09:44:50.405Z,969.730
2019-04-03T09:46:50.072Z,969.724
2019-04-03T09:48:50.281Z,969.684
2019-04-03T09:50:50.343Z,969.647
2019-04-03T09:52:54.348Z,969.634
2019-04-03T09:54:50.032Z,969.608
2019-04-03T09:57:05.636Z,969.593
2019-04-03T09:58:49.766Z,969.571
2019-04-03T10:00:50.117Z,969.549
2019-04-03T10:02:52.125Z,969.512
2019-04-03T10:04:50.078Z,969.504
2019-04-03T10:06:49.764Z,969.471
2019-04-03T10:08:50.386Z,969.439
2019-04-03T10:10:50.494Z,969.395
2019-04-03T10:12:50.071Z,969.380
2019-04-03T10:14:49.715Z,969.351
2019-04-03T10:16:50.005Z,969.351
2019-04-03T10:18:50.439Z,969.281
2019-04-03T10:20:49.918Z,969.221
2019-04-03T10:22:50.153Z,969.233
2019-04-03T10:24:49.999Z,969.212
2019-04-03T10:26:50.309Z,969.142
2019-04-03T10:28:50.644Z,969.120
2019-04-03T10:30:54.189Z,969.062
2019-04-03T10:32:50.540Z,969.034
2019-04-03T10:34:50.356Z,968.974
2019-04-03T10:36:49.662Z,968.930
2019-04-03T10:38:50.301Z,968.912
2019-04-03T10:40:50.922Z,968.927
2019-04-03T10:42:50.633Z,968.921
2019-04-03T10:44:50.265Z,968.870
2019-04-03T10:46:51.196Z,968.868
2019-04-03T10:48:50.635Z,968.832
2019-04-03T10:50:49.950Z,968.782
2019-04-03T10:52:50.486Z,968.752
2019-04-03T10:54:49.958Z,968.751
2019-04-03T10:56:50.046Z,968.724
2019-04-03T10:58:51.615Z,968.633
2019-04-03T11:00:50.409Z,968.615
2019-04-03T11:02:49.983Z,968.583
2019-04-03T11:04:50.791Z,968.510
2019-04-03T11:06:49.974Z,968.511
2019-04-03T11:08:50.555Z,968.489
2019-04-03T11:10:50.259Z,968.489
2019-04-03T11:12:49.910Z,968.472
2019-04-03T11:14:50.527Z,968.456
2019-04-03T11:16:49.817Z,968.447
2019-04-03T11:19:06.707Z,968.378
2019-04-03T11:20:50.100Z,968.347
2019-04-03T11:23:06.248Z,968.306
2019-04-03T11:24:50.036Z,968.291
2019-04-03T11:26:53.187Z,968.245
2019-04-03T11:28:50.581Z,968.227
2019-04-03T11:30:53.569Z,968.207
2019-04-03T11:32:50.399Z,968.187
2019-04-03T11:34:50.358Z,968.201
2019-04-03T11:36:50.862Z,968.182
2019-04-03T11:38:50.360Z,968.192
2019-04-03T11:40:51.007Z,968.187
2019-04-03T11:42:49.926Z,968.174
2019-04-03T11:44:50.442Z,968.118
2019-04-03T11:46:50.203Z,968.118
2019-04-03T11:48:50.377Z,968.023
2019-04-03T11:50:50.163Z,967.957
2019-04-03T11:52:52.407Z,967.924
2019-04-03T11:54:53.586Z,967.913
2019-04-03T11:56:50.263Z,967.904
2019-04-03T11:58:53.580Z,967.887
2019-04-03T12:00:50.443Z,967.866
2019-04-03T12:02:50.272Z,967.789
2019-04-03T12:04:50.271Z,967.770
2019-04-03T12:06:53.322Z,967.734
2019-04-03T12:08:50.503Z,967.691
2019-04-03T12:10:50.252Z,967.689
2019-04-03T12:12:50.613Z,967.673
2019-04-03T12:14:50.448Z,967.659
2019-04-03T12:16:50.550Z,967.632
2019-04-03T12:18:49.807Z,967.601
2019-04-03T12:20:50.683Z,967.543
2019-04-03T12:22:49.893Z,967.444
2019-04-03T12:24:50.816Z,967.398
2019-04-03T12:26:56.338Z,967.350
2019-04-03T12:28:51.107Z,967.315
2019-04-03T12:30:49.612Z,967.277
2019-04-03T12:32:50.557Z,967.266
2019-04-03T12:34:51.038Z,967.240
2019-04-03T12:36:50.496Z,967.178
2019-04-03T12:38:50.086Z,967.162
2019-04-03T12:40:50.463Z,967.132
2019-04-03T12:42:49.610Z,967.140
2019-04-03T12:44:50.303Z,967.065
2019-04-03T12:46:50.235Z,966.991
2019-04-03T12:48:51.511Z,966.992
2019-04-03T12:50:50.371Z,966.980
2019-04-03T12:52:49.764Z,966.976
2019-04-03T12:54:54.727Z,966.940
2019-04-03T12:56:50.256Z,966.935
2019-04-03T12:58:49.890Z,966.897
2019-04-03T13:00:50.524Z,966.836
2019-04-03T13:02:53.491Z,966.803
2019-04-03T13:04:50.635Z,966.825
2019-04-03T13:06:50.219Z,966.814
2019-04-03T13:08:50.999Z,966.764
2019-04-03T13:10:49.957Z,966.740
2019-04-03T13:12:50.503Z,966.667
2019-04-03T13:14:50.244Z,966.654
2019-04-03T13:16:50.006Z,966.556
2019-04-03T13:18:49.709Z,966.506
2019-04-03T13:20:50.123Z,966.449
2019-04-03T13:22:50.832Z,966.409
2019-04-03T13:24:50.129Z,966.336
2019-04-03T13:26:50.256Z,966.284
2019-04-03T13:28:50.499Z,966.275
2019-04-03T13:30:50.258Z,966.244
2019-04-03T13:33:06.409Z,966.232
2019-04-03T13:34:49.822Z,966.138
2019-04-03T13:36:52.554Z,966.097
2019-04-03T13:38:52.266Z,966.051
2019-04-03T13:40:51.082Z,966.034
2019-04-03T13:42:50.657Z,966.066
2019-04-03T13:44:49.908Z,966.046
2019-04-03T13:46:53.444Z,966.028
2019-04-03T13:48:50.549Z,966.019
2019-04-03T13:50:50.145Z,965.983
2019-04-03T13:52:51.470Z,965.950
2019-04-03T13:54:50.436Z,965.908
2019-04-03T13:56:54.323Z,965.875
2019-04-03T13:58:54.821Z,965.811
2019-04-03T14:01:04.093Z,965.786
2019-04-03T14:02:49.821Z,965.731
2019-04-03T14:04:50.279Z,965.711
2019-04-03T14:06:49.708Z,965.677
2019-04-03T14:08:50.154Z,965.597
2019-04-03T14:10:51.010Z,965.569
2019-04-03T14:12:50.140Z,965.520
2019-04-03T14:14:50.411Z,965.520
2019-04-03T14:16:50.349Z,965.537
2019-04-03T14:18:51.454Z,965.476
2019-04-03T14:20:52.185Z,965.431
2019-04-03T14:22:49.981Z,965.334
2019-04-03T14:24:52.943Z,965.316
2019-04-03T14:26:50.255Z,965.309
2019-04-03T14:28:50.212Z,965.271
2019-04-03T14:30:49.842Z,965.212
2019-04-03T14:32:55.352Z,965.152
2019-04-03T14:34:50.358Z,965.067
2019-04-03T14:36:51.636Z,965.000
2019-04-03T14:38:50.261Z,964.944
2019-04-03T14:40:50.707Z,964.921
2019-04-03T14:42:49.929Z,964.817
2019-04-03T14:44:49.685Z,964.802
2019-04-03T14:46:52.320Z,964.757
2019-04-03T14:48:50.708Z,964.725
2019-04-03T14:50:49.951Z,964.689
2019-04-03T14:52:50.288Z,964.638
2019-04-03T14:54:50.730Z,964.576
2019-04-03T14:56:50.354Z,964.542
2019-04-03T14:58:50.680Z,964.532
2019-04-03T15:00:50.834Z,964.496
2019-04-03T15:02:50.083Z,964.452
2019-04-03T15:04:49.986Z,964.413
2019-04-03T15:07:08.443Z,964.396
2019-04-03T15:08:49.679Z,964.405
2019-04-03T15:10:50.924Z,964.426
2019-04-03T15:12:50.136Z,964.428
2019-04-03T15:14:52.206Z,964.410
2019-04-03T15:16:50.171Z,964.361
2019-04-03T15:18:50.451Z,964.334
2019-04-03T15:20:51.564Z,964.265
2019-04-03T15:22:49.826Z,964.265
2019-04-03T15:24:50.461Z,964.193
2019-04-03T15:26:54.958Z,964.193
2019-04-03T15:28:50.250Z,964.156
2019-04-03T15:30:50.539Z,964.130
2019-04-03T15:32:52.910Z,964.093
2019-04-03T15:34:51.389Z,964.063
2019-04-03T15:36:51.854Z,964.010
2019-04-03T15:38:50.112Z,963.986
2019-04-03T15:40:50.204Z,963.968
2019-04-03T15:42:50.587Z,963.949
2019-04-03T15:44:53.731Z,963.918
2019-04-03T15:46:50.771Z,963.901
2019-04-03T15:48:55.312Z,963.863
2019-04-03T15:50:50.182Z,963.840
2019-04-03T15:52:51.362Z,963.825
2019-04-03T15:54:50.058Z,963.809
2019-04-03T15:56:50.326Z,963.812
2019-04-03T15:58:52.193Z,963.782
2019-04-03T16:00:50.508Z,963.750
2019-04-03T16:02:49.889Z,963.731
2019-04-03T16:04:50.563Z,963.692
2019-04-03T16:06:49.908Z,963.671
2019-04-03T16:08:50.285Z,963.619
2019-04-03T16:10:50.849Z,963.592
2019-04-03T16:12:49.962Z,963.525
2019-04-03T16:14:52.016Z,963.486
2019-04-03T16:16:50.361Z,963.425
2019-04-03T16:18:50.810Z,963.346
2019-04-03T16:20:50.917Z,963.346
2019-04-03T16:22:50.257Z,963.255
2019-04-03T16:24:54.572Z,963.228
2019-04-03T16:26:49.675Z,963.208
2019-04-03T16:28:49.892Z,963.187
2019-04-03T16:30:54.549Z,963.169
2019-04-03T16:32:49.861Z,963.150
2019-04-03T16:34:50.902Z,963.146
2019-04-03T16:36:50.958Z,963.131
2019-04-03T16:38:50.667Z,963.110
2019-04-03T16:40:50.216Z,963.064
2019-04-03T16:42:54.348Z,963.061
2019-04-03T16:44:50.734Z,963.018
2019-04-03T16:46:50.021Z,962.972
2019-04-03T16:48:51.838Z,962.920
2019-04-03T16:50:50.207Z,962.867
2019-04-03T16:52:50.574Z,962.797
2019-04-03T16:54:49.804Z,962.744
2019-04-03T16:56:50.684Z,962.716
2019-04-03T16:58:50.234Z,962.708
2019-04-03T17:00:50.735Z,962.709
2019-04-03T17:02:50.345Z,962.677
2019-04-03T17:04:50.385Z,962.636
2019-04-03T17:06:50.772Z,962.596
2019-04-03T17:08:50.037Z,962.598
2019-04-03T17:10:50.148Z,962.582
2019-04-03T17:12:50.358Z,962.579
2019-04-03T17:14:50.357Z,962.545
2019-04-03T17:16:50.710Z,962.528
2019-04-03T17:18:49.796Z,962.523
2019-04-03T17:20:51.379Z,962.494
2019-04-03T17:22:50.414Z,962.474
2019-04-03T17:24:56.586Z,962.475
2019-04-03T17:26:59.805Z,962.450
2019-04-03T17:29:05.368Z,962.427
2019-04-03T17:30:52.522Z,962.389
2019-04-03T17:32:49.625Z,962.379
2019-04-03T17:34:50.152Z,962.376
2019-04-03T17:36:54.694Z,962.376
2019-04-03T17:38:50.120Z,962.427
2019-04-03T17:40:50.320Z,962.468
2019-04-03T17:42:50.327Z,962.475
2019-04-03T17:44:50.440Z,962.480
2019-04-03T17:46:49.724Z,962.504
2019-04-03T17:48:49.793Z,962.525
2019-04-03T17:50:49.807Z,962.539
2019-04-03T17:52:49.911Z,962.550
2019-04-03T17:54:50.013Z,962.549
2019-04-03T17:56:50.226Z,962.531
2019-04-03T17:58:50.318Z,962.534
2019-04-03T18:00:52.800Z,962.550
2019-04-03T18:02:49.808Z,962.570
2019-04-03T18:04:51.444Z,962.588
2019-04-03T18:06:50.609Z,962.616
2019-04-03T18:08:49.724Z,962.678
2019-04-03T18:10:49.888Z,962.716
2019-04-03T18:12:52.976Z,962.762
2019-04-03T18:14:50.002Z,962.778
2019-04-03T18:16:50.136Z,962.821
2019-04-03T18:18:50.365Z,962.847
2019-04-03T18:20:50.463Z,962.921
2019-04-03T18:22:51.368Z,963.000
2019-04-03T18:24:54.323Z,963.081
2019-04-03T18:26:49.666Z,963.228
2019-04-03T18:28:49.733Z,963.440
2019-04-03T18:30:49.831Z,963.938
2019-04-03T18:32:49.941Z,964.152
2019-04-03T18:34:55.677Z,964.386
2019-04-03T18:36:50.078Z,964.347
2019-04-03T18:38:50.184Z,964.503
2019-04-03T18:40:50.204Z,964.573
2019-04-03T18:42:50.577Z,964.674
2019-04-03T18:44:49.694Z,964.732
2019-04-03T18:46:50.510Z,965.017
2019-04-03T18:49:01.688Z,965.081
2019-04-03T18:50:50.526Z,965.193
2019-04-03T18:52:50.559Z,965.234
2019-04-03T18:54:49.607Z,965.374
2019-04-03T18:56:49.843Z,965.474
2019-04-03T18:58:49.889Z,965.509
2019-04-03T19:00:50.019Z,965.718
2019-04-03T19:02:50.145Z,965.692
2019-04-03T19:05:02.719Z,965.500
2019-04-03T19:06:49.856Z,965.523
2019-04-03T19:08:50.753Z,965.594
2019-04-03T19:11:07.595Z,965.683
2019-04-03T19:12:49.995Z,965.683
2019-04-03T19:14:49.965Z,965.705
2019-04-03T19:16:54.848Z,965.660
2019-04-03T19:18:49.955Z,965.644
2019-04-03T19:20:49.972Z,965.631
2019-04-03T19:23:05.047Z,965.619
2019-04-03T19:24:49.683Z,965.638
2019-04-03T19:26:49.833Z,965.724
2019-04-03T19:28:49.910Z,965.786
2019-04-03T19:30:49.941Z,965.882
2019-04-03T19:32:50.041Z,965.992
2019-04-03T19:34:53.422Z,966.066
2019-04-03T19:36:49.614Z,966.066
2019-04-03T19:38:49.675Z,966.162
2019-04-03T19:40:49.818Z,966.174
2019-04-03T19:42:49.828Z,966.129
2019-04-03T19:44:50.049Z,966.172
2019-04-03T19:46:51.957Z,966.198
2019-04-03T19:48:50.374Z,966.230
2019-04-03T19:50:50.484Z,966.317
2019-04-03T19:52:50.541Z,966.404
2019-04-03T19:54:52.111Z,966.468
2019-04-03T19:56:50.353Z,966.430
2019-04-03T19:58:50.409Z,966.363
2019-04-03T20:00:50.350Z,966.277
2019-04-03T20:02:50.346Z,966.265
2019-04-03T20:04:49.706Z,966.350
2019-04-03T20:06:49.831Z,966.469
2019-04-03T20:08:49.867Z,966.578
2019-04-03T20:10:49.951Z,966.606
2019-04-03T20:12:50.129Z,966.659
2019-04-03T20:15:02.327Z,966.729
2019-04-03T20:16:50.558Z,966.785
2019-04-03T20:18:49.663Z,966.778
2019-04-03T20:20:49.741Z,966.766
2019-04-03T20:22:49.639Z,966.770
2019-04-03T20:25:00.780Z,966.780
2019-04-03T20:26:50.061Z,966.765
2019-04-03T20:28:50.166Z,966.760
2019-04-03T20:30:50.236Z,966.758
2019-04-03T20:32:50.247Z,966.738
2019-04-03T20:34:50.520Z,966.735
2019-04-03T20:36:55.150Z,966.765
2019-04-03T20:38:50.186Z,966.781
2019-04-03T20:40:50.230Z,966.942
2019-04-03T20:42:50.247Z,967.073
2019-04-03T20:44:50.320Z,967.075
2019-04-03T20:46:50.551Z,967.076
2019-04-03T20:48:50.552Z,967.055
2019-04-03T20:50:49.710Z,967.058
2019-04-03T20:52:49.809Z,967.090
2019-04-03T20:54:54.057Z,967.133
2019-04-03T20:57:02.357Z,967.163
2019-04-03T20:58:56.595Z,967.134
2019-04-03T21:01:06.615Z,967.164
2019-04-03T21:02:50.122Z,967.168
2019-04-03T21:04:50.461Z,967.197
2019-04-03T21:06:52.379Z,967.182
2019-04-03T21:08:50.391Z,967.124
2019-04-03T21:10:50.439Z,967.106
2019-04-03T21:12:50.466Z,967.087
2019-04-03T21:14:50.574Z,967.098
2019-04-03T21:16:49.863Z,967.123
2019-04-03T21:18:51.926Z,967.236
2019-04-03T21:20:49.970Z,967.267
2019-04-03T21:22:50.114Z,967.270
2019-04-03T21:24:50.137Z,967.274
2019-04-03T21:26:50.357Z,967.282
2019-04-03T21:28:50.368Z,967.309
2019-04-03T21:30:50.426Z,967.357
2019-04-03T21:32:50.446Z,967.385
2019-04-03T21:34:49.853Z,967.403
2019-04-03T21:36:50.148Z,967.407
2019-04-03T21:38:50.336Z,967.444
2019-04-03T21:40:50.350Z,967.464
2019-04-03T21:42:50.360Z,967.463
2019-04-03T21:44:50.374Z,967.433
2019-04-03T21:46:50.589Z,967.389
2019-04-03T21:48:49.631Z,967.394
2019-04-03T21:50:50.811Z,967.405
2019-04-03T21:52:54.488Z,967.417
2019-04-03T21:54:50.459Z,967.429
2019-04-03T21:56:50.579Z,967.452
2019-04-03T21:58:49.612Z,967.472
2019-04-03T22:00:49.747Z,967.442
2019-04-03T22:02:50.221Z,967.399
2019-04-03T22:04:49.664Z,967.382
2019-04-03T22:06:49.842Z,967.358
2019-04-03T22:08:51.932Z,967.358
2019-04-03T22:10:50.809Z,967.337
2019-04-03T22:12:49.905Z,967.377
2019-04-03T22:14:49.975Z,967.392
2019-04-03T22:16:51.490Z,967.392
2019-04-03T22:18:50.567Z,967.445
2019-04-03T22:20:50.606Z,967.473
2019-04-03T22:22:49.811Z,967.455
2019-04-03T22:24:49.788Z,967.442
2019-04-03T22:26:50.117Z,967.411
2019-04-03T22:28:50.130Z,967.409
2019-04-03T22:30:52.984Z,967.384
2019-04-03T22:32:50.039Z,967.376
2019-04-03T22:34:50.445Z,967.404
2019-04-03T22:36:50.588Z,967.466
2019-04-03T22:38:49.599Z,967.514
2019-04-03T22:40:49.664Z,967.506
2019-04-03T22:42:49.681Z,967.435
2019-04-03T22:44:49.703Z,967.426
2019-04-03T22:46:49.960Z,967.431
2019-04-03T22:48:50.069Z,967.441
2019-04-03T22:50:50.148Z,967.442
2019-04-03T22:52:50.230Z,967.439
2019-04-03T22:54:50.311Z,967.441
2019-04-03T22:56:50.555Z,967.444
2019-04-03T22:58:53.535Z,967.438
2019-04-03T23:00:50.619Z,967.445
2019-04-03T23:02:49.591Z,967.451
2019-04-03T23:04:50.135Z,967.455
2019-04-03T23:06:50.438Z,967.450
2019-04-03T23:08:54.526Z,967.427
2019-04-03T23:10:50.445Z,967.465
2019-04-03T23:12:50.431Z,967.461
2019-04-03T23:14:50.377Z,967.467
2019-04-03T23:16:49.710Z,967.456
2019-04-03T23:18:49.709Z,967.440
2019-04-03T23:20:53.438Z,967.434
2019-04-03T23:22:50.485Z,967.408
2019-04-03T23:24:50.529Z,967.376
2019-04-03T23:26:49.814Z,967.376
2019-04-03T23:28:49.883Z,967.331
2019-04-03T23:30:50.022Z,967.323
2019-04-03T23:32:50.147Z,967.292
2019-04-03T23:34:50.462Z,967.266
2019-04-03T23:36:49.694Z,967.253
2019-04-03T23:38:49.689Z,967.244
2019-04-03T23:40:49.818Z,967.227
2019-04-03T23:42:49.837Z,967.256
2019-04-03T23:44:49.927Z,967.305
2019-04-03T23:46:50.181Z,967.308
2019-04-03T23:48:50.265Z,967.269
2019-04-03T23:50:53.296Z,967.245
2019-04-03T23:52:50.294Z,967.199
2019-04-03T23:54:50.242Z,967.186
2019-04-03T23:56:50.490Z,967.153
2019-04-03T23:58:50.542Z,967.129
